sensor_id;sensor_type;location;lat;lon;timestamp;P1;durP1;ratioP1;P2;durP2;ratioP2
51901;SDS011;37929;53.218;6.548;2023-11-19T00:00:07;53.25;;;17.48;;
51901;SDS011;37929;53.218;6.548;2023-11-19T00:02:42;50.58;;;18.40;;
51901;SDS011;37929;53.218;6.548;2023-11-19T00:05:09;47.50;;;18.13;;
51901;SDS011;37929;53.218;6.548;2023-11-19T00:07:36;46.20;;;17.80;;
51901;SDS011;37929;53.218;6.548;2023-11-19T00:10:14;58.72;;;20.15;;
51901;SDS011;37929;53.218;6.548;2023-11-19T00:12:45;44.03;;;17.13;;
51901;SDS011;37929;53.218;6.548;2023-11-19T00:15:14;60.17;;;17.33;;
51901;SDS011;37929;53.218;6.548;2023-11-19T00:17:47;51.67;;;18.13;;
51901;SDS011;37929;53.218;6.548;2023-11-19T00:20:14;47.60;;;16.52;;
51901;SDS011;37929;53.218;6.548;2023-11-19T00:22:41;52.58;;;17.45;;
51901;SDS011;37929;53.218;6.548;2023-11-19T00:25:09;45.15;;;15.73;;
51901;SDS011;37929;53.218;6.548;2023-11-19T00:27:35;35.55;;;14.93;;
51901;SDS011;37929;53.218;6.548;2023-11-19T00:30:03;40.83;;;14.75;;
51901;SDS011;37929;53.218;6.548;2023-11-19T00:32:31;37.28;;;13.73;;
51901;SDS011;37929;53.218;6.548;2023-11-19T00:34:59;35.47;;;13.90;;
51901;SDS011;37929;53.218;6.548;2023-11-19T00:37:25;39.83;;;12.50;;
51901;SDS011;37929;53.218;6.548;2023-11-19T00:39:51;33.92;;;12.13;;
51901;SDS011;37929;53.218;6.548;2023-11-19T00:42:17;35.50;;;11.90;;
51901;SDS011;37929;53.218;6.548;2023-11-19T00:44:43;32.78;;;10.60;;
51901;SDS011;37929;53.218;6.548;2023-11-19T00:47:10;30.15;;;9.68;;
51901;SDS011;37929;53.218;6.548;2023-11-19T00:49:36;33.08;;;10.05;;
51901;SDS011;37929;53.218;6.548;2023-11-19T00:52:02;31.60;;;9.40;;
51901;SDS011;37929;53.218;6.548;2023-11-19T00:54:29;25.02;;;8.23;;
51901;SDS011;37929;53.218;6.548;2023-11-19T00:56:55;29.73;;;8.45;;
51901;SDS011;37929;53.218;6.548;2023-11-19T00:59:27;32.97;;;8.95;;
51901;SDS011;37929;53.218;6.548;2023-11-19T01:01:53;30.33;;;8.20;;
51901;SDS011;37929;53.218;6.548;2023-11-19T01:04:20;27.27;;;6.80;;
51901;SDS011;37929;53.218;6.548;2023-11-19T01:06:45;27.67;;;7.65;;
51901;SDS011;37929;53.218;6.548;2023-11-19T01:09:14;31.92;;;7.43;;
51901;SDS011;37929;53.218;6.548;2023-11-19T01:11:40;24.60;;;6.97;;
51901;SDS011;37929;53.218;6.548;2023-11-19T01:14:06;30.10;;;6.25;;
51901;SDS011;37929;53.218;6.548;2023-11-19T01:16:34;24.25;;;6.55;;
51901;SDS011;37929;53.218;6.548;2023-11-19T01:19:05;23.60;;;6.07;;
51901;SDS011;37929;53.218;6.548;2023-11-19T01:21:33;28.33;;;6.03;;
51901;SDS011;37929;53.218;6.548;2023-11-19T01:23:59;25.52;;;6.70;;
51901;SDS011;37929;53.218;6.548;2023-11-19T01:26:26;20.77;;;5.40;;
51901;SDS011;37929;53.218;6.548;2023-11-19T01:28:51;26.63;;;6.53;;
51901;SDS011;37929;53.218;6.548;2023-11-19T01:31:18;28.25;;;5.82;;
51901;SDS011;37929;53.218;6.548;2023-11-19T01:33:44;27.38;;;5.40;;
51901;SDS011;37929;53.218;6.548;2023-11-19T01:36:14;31.48;;;6.53;;
51901;SDS011;37929;53.218;6.548;2023-11-19T01:38:43;23.98;;;5.45;;
51901;SDS011;37929;53.218;6.548;2023-11-19T01:41:09;25.40;;;6.03;;
51901;SDS011;37929;53.218;6.548;2023-11-19T01:43:36;27.83;;;5.25;;
51901;SDS011;37929;53.218;6.548;2023-11-19T01:46:12;31.30;;;6.03;;
51901;SDS011;37929;53.218;6.548;2023-11-19T01:48:43;28.20;;;5.40;;
51901;SDS011;37929;53.218;6.548;2023-11-19T01:51:11;25.17;;;4.80;;
51901;SDS011;37929;53.218;6.548;2023-11-19T01:53:38;25.73;;;5.25;;
51901;SDS011;37929;53.218;6.548;2023-11-19T01:56:08;27.05;;;5.10;;
51901;SDS011;37929;53.218;6.548;2023-11-19T01:58:37;23.20;;;4.85;;
51901;SDS011;37929;53.218;6.548;2023-11-19T02:01:04;25.40;;;4.97;;
51901;SDS011;37929;53.218;6.548;2023-11-19T02:03:32;29.23;;;6.28;;
51901;SDS011;37929;53.218;6.548;2023-11-19T02:05:59;24.60;;;5.05;;
51901;SDS011;37929;53.218;6.548;2023-11-19T02:08:25;23.85;;;5.10;;
51901;SDS011;37929;53.218;6.548;2023-11-19T02:10:51;23.50;;;5.07;;
51901;SDS011;37929;53.218;6.548;2023-11-19T02:13:20;26.92;;;5.05;;
51901;SDS011;37929;53.218;6.548;2023-11-19T02:15:49;26.48;;;4.82;;
51901;SDS011;37929;53.218;6.548;2023-11-19T02:18:19;25.73;;;5.80;;
51901;SDS011;37929;53.218;6.548;2023-11-19T02:20:47;26.17;;;5.15;;
51901;SDS011;37929;53.218;6.548;2023-11-19T02:23:17;31.17;;;5.10;;
51901;SDS011;37929;53.218;6.548;2023-11-19T02:26:09;36.65;;;5.88;;
51901;SDS011;37929;53.218;6.548;2023-11-19T02:28:52;23.05;;;4.75;;
51901;SDS011;37929;53.218;6.548;2023-11-19T02:31:17;27.75;;;5.68;;
51901;SDS011;37929;53.218;6.548;2023-11-19T02:33:45;26.13;;;5.10;;
51901;SDS011;37929;53.218;6.548;2023-11-19T02:36:11;23.95;;;5.80;;
51901;SDS011;37929;53.218;6.548;2023-11-19T02:38:37;31.77;;;8.10;;
51901;SDS011;37929;53.218;6.548;2023-11-19T02:41:03;26.25;;;5.65;;
51901;SDS011;37929;53.218;6.548;2023-11-19T02:43:32;25.95;;;5.47;;
51901;SDS011;37929;53.218;6.548;2023-11-19T02:46:02;34.53;;;6.28;;
51901;SDS011;37929;53.218;6.548;2023-11-19T02:48:35;23.50;;;5.30;;
51901;SDS011;37929;53.218;6.548;2023-11-19T02:51:01;25.80;;;5.13;;
51901;SDS011;37929;53.218;6.548;2023-11-19T02:53:34;28.88;;;6.40;;
51901;SDS011;37929;53.218;6.548;2023-11-19T02:56:00;24.15;;;4.90;;
51901;SDS011;37929;53.218;6.548;2023-11-19T02:58:37;23.58;;;5.00;;
51901;SDS011;37929;53.218;6.548;2023-11-19T03:01:04;30.25;;;5.43;;
51901;SDS011;37929;53.218;6.548;2023-11-19T03:03:38;29.52;;;4.88;;
51901;SDS011;37929;53.218;6.548;2023-11-19T03:06:05;29.13;;;5.68;;
51901;SDS011;37929;53.218;6.548;2023-11-19T03:08:32;26.27;;;6.38;;
51901;SDS011;37929;53.218;6.548;2023-11-19T03:11:00;21.13;;;4.85;;
51901;SDS011;37929;53.218;6.548;2023-11-19T03:13:26;29.20;;;5.43;;
51901;SDS011;37929;53.218;6.548;2023-11-19T03:15:52;29.70;;;5.72;;
51901;SDS011;37929;53.218;6.548;2023-11-19T03:18:19;27.48;;;4.68;;
51901;SDS011;37929;53.218;6.548;2023-11-19T03:20:46;23.23;;;4.63;;
51901;SDS011;37929;53.218;6.548;2023-11-19T03:23:12;23.10;;;4.65;;
51901;SDS011;37929;53.218;6.548;2023-11-19T03:25:38;27.90;;;5.53;;
51901;SDS011;37929;53.218;6.548;2023-11-19T03:28:04;24.63;;;5.03;;
51901;SDS011;37929;53.218;6.548;2023-11-19T03:30:30;26.77;;;5.40;;
51901;SDS011;37929;53.218;6.548;2023-11-19T03:32:56;26.40;;;4.95;;
51901;SDS011;37929;53.218;6.548;2023-11-19T03:35:23;25.40;;;4.90;;
51901;SDS011;37929;53.218;6.548;2023-11-19T03:37:49;26.17;;;4.95;;
51901;SDS011;37929;53.218;6.548;2023-11-19T03:40:16;24.45;;;5.47;;
51901;SDS011;37929;53.218;6.548;2023-11-19T03:42:44;27.00;;;5.10;;
51901;SDS011;37929;53.218;6.548;2023-11-19T03:45:13;27.05;;;4.63;;
51901;SDS011;37929;53.218;6.548;2023-11-19T03:47:40;22.92;;;5.28;;
51901;SDS011;37929;53.218;6.548;2023-11-19T03:50:09;24.67;;;5.07;;
51901;SDS011;37929;53.218;6.548;2023-11-19T03:52:35;30.42;;;4.97;;
51901;SDS011;37929;53.218;6.548;2023-11-19T03:55:01;24.92;;;4.85;;
51901;SDS011;37929;53.218;6.548;2023-11-19T03:57:30;24.35;;;4.57;;
51901;SDS011;37929;53.218;6.548;2023-11-19T03:59:56;32.38;;;5.15;;
51901;SDS011;37929;53.218;6.548;2023-11-19T04:02:23;24.02;;;4.50;;
51901;SDS011;37929;53.218;6.548;2023-11-19T04:04:53;27.60;;;4.43;;
51901;SDS011;37929;53.218;6.548;2023-11-19T04:07:20;25.48;;;5.05;;
51901;SDS011;37929;53.218;6.548;2023-11-19T04:09:45;26.27;;;4.50;;
51901;SDS011;37929;53.218;6.548;2023-11-19T04:12:11;32.33;;;6.47;;
51901;SDS011;37929;53.218;6.548;2023-11-19T04:14:37;27.75;;;4.68;;
51901;SDS011;37929;53.218;6.548;2023-11-19T04:17:03;24.00;;;4.75;;
51901;SDS011;37929;53.218;6.548;2023-11-19T04:19:29;24.83;;;5.07;;
51901;SDS011;37929;53.218;6.548;2023-11-19T04:21:58;32.17;;;5.47;;
51901;SDS011;37929;53.218;6.548;2023-11-19T04:24:24;30.10;;;5.32;;
51901;SDS011;37929;53.218;6.548;2023-11-19T04:26:49;32.88;;;5.93;;
51901;SDS011;37929;53.218;6.548;2023-11-19T04:29:16;27.73;;;5.32;;
51901;SDS011;37929;53.218;6.548;2023-11-19T04:31:42;33.92;;;4.90;;
51901;SDS011;37929;53.218;6.548;2023-11-19T04:34:12;23.33;;;4.68;;
51901;SDS011;37929;53.218;6.548;2023-11-19T04:36:41;25.60;;;5.18;;
51901;SDS011;37929;53.218;6.548;2023-11-19T04:39:06;27.13;;;4.72;;
51901;SDS011;37929;53.218;6.548;2023-11-19T04:44:17;31.02;;;5.88;;
51901;SDS011;37929;53.218;6.548;2023-11-19T04:46:43;33.63;;;5.80;;
51901;SDS011;37929;53.218;6.548;2023-11-19T04:49:09;31.98;;;6.00;;
51901;SDS011;37929;53.218;6.548;2023-11-19T04:51:39;22.88;;;4.80;;
51901;SDS011;37929;53.218;6.548;2023-11-19T04:54:06;30.52;;;5.88;;
51901;SDS011;37929;53.218;6.548;2023-11-19T04:56:33;35.28;;;5.63;;
51901;SDS011;37929;53.218;6.548;2023-11-19T04:59:02;29.92;;;5.25;;
51901;SDS011;37929;53.218;6.548;2023-11-19T05:01:29;25.33;;;5.50;;
51901;SDS011;37929;53.218;6.548;2023-11-19T05:03:55;27.52;;;6.10;;
51901;SDS011;37929;53.218;6.548;2023-11-19T05:06:30;33.50;;;6.68;;
51901;SDS011;37929;53.218;6.548;2023-11-19T05:08:58;31.60;;;5.50;;
51901;SDS011;37929;53.218;6.548;2023-11-19T05:11:26;28.38;;;4.90;;
51901;SDS011;37929;53.218;6.548;2023-11-19T05:13:53;39.85;;;5.30;;
51901;SDS011;37929;53.218;6.548;2023-11-19T05:16:19;33.72;;;6.03;;
51901;SDS011;37929;53.218;6.548;2023-11-19T05:18:46;29.38;;;6.10;;
51901;SDS011;37929;53.218;6.548;2023-11-19T05:21:12;30.25;;;6.55;;
51901;SDS011;37929;53.218;6.548;2023-11-19T05:23:38;31.67;;;5.38;;
51901;SDS011;37929;53.218;6.548;2023-11-19T05:26:04;38.67;;;6.07;;
51901;SDS011;37929;53.218;6.548;2023-11-19T05:28:30;32.78;;;7.20;;
51901;SDS011;37929;53.218;6.548;2023-11-19T05:30:56;30.65;;;5.88;;
51901;SDS011;37929;53.218;6.548;2023-11-19T05:33:22;37.80;;;6.53;;
51901;SDS011;37929;53.218;6.548;2023-11-19T05:35:48;38.47;;;6.38;;
51901;SDS011;37929;53.218;6.548;2023-11-19T05:38:14;31.17;;;4.68;;
51901;SDS011;37929;53.218;6.548;2023-11-19T05:40:40;27.58;;;5.25;;
51901;SDS011;37929;53.218;6.548;2023-11-19T05:43:07;40.25;;;6.18;;
51901;SDS011;37929;53.218;6.548;2023-11-19T05:45:32;37.45;;;6.28;;
51901;SDS011;37929;53.218;6.548;2023-11-19T05:47:58;34.20;;;6.30;;
51901;SDS011;37929;53.218;6.548;2023-11-19T05:50:24;29.00;;;5.65;;
51901;SDS011;37929;53.218;6.548;2023-11-19T05:52:50;32.85;;;5.75;;
51901;SDS011;37929;53.218;6.548;2023-11-19T05:55:18;27.17;;;6.15;;
51901;SDS011;37929;53.218;6.548;2023-11-19T05:57:44;31.77;;;5.72;;
51901;SDS011;37929;53.218;6.548;2023-11-19T06:00:10;35.65;;;6.80;;
51901;SDS011;37929;53.218;6.548;2023-11-19T06:02:38;36.47;;;5.57;;
51901;SDS011;37929;53.218;6.548;2023-11-19T06:05:04;25.90;;;4.55;;
51901;SDS011;37929;53.218;6.548;2023-11-19T06:07:32;37.00;;;7.32;;
51901;SDS011;37929;53.218;6.548;2023-11-19T06:09:58;30.55;;;6.32;;
51901;SDS011;37929;53.218;6.548;2023-11-19T06:12:24;29.42;;;5.45;;
51901;SDS011;37929;53.218;6.548;2023-11-19T06:14:52;40.55;;;6.85;;
51901;SDS011;37929;53.218;6.548;2023-11-19T06:17:18;31.75;;;6.50;;
51901;SDS011;37929;53.218;6.548;2023-11-19T06:19:44;29.95;;;5.00;;
51901;SDS011;37929;53.218;6.548;2023-11-19T06:22:10;26.02;;;5.38;;
51901;SDS011;37929;53.218;6.548;2023-11-19T06:24:36;31.63;;;5.22;;
51901;SDS011;37929;53.218;6.548;2023-11-19T06:27:02;29.75;;;5.85;;
51901;SDS011;37929;53.218;6.548;2023-11-19T06:29:29;52.13;;;6.43;;
51901;SDS011;37929;53.218;6.548;2023-11-19T06:31:55;31.38;;;4.78;;
51901;SDS011;37929;53.218;6.548;2023-11-19T06:34:21;28.15;;;6.18;;
51901;SDS011;37929;53.218;6.548;2023-11-19T06:36:46;28.17;;;5.88;;
51901;SDS011;37929;53.218;6.548;2023-11-19T06:39:13;37.63;;;5.75;;
51901;SDS011;37929;53.218;6.548;2023-11-19T06:41:44;37.63;;;6.28;;
51901;SDS011;37929;53.218;6.548;2023-11-19T06:44:10;32.58;;;6.28;;
51901;SDS011;37929;53.218;6.548;2023-11-19T06:46:36;32.45;;;5.45;;
51901;SDS011;37929;53.218;6.548;2023-11-19T06:49:02;29.35;;;5.50;;
51901;SDS011;37929;53.218;6.548;2023-11-19T06:51:28;36.85;;;5.65;;
51901;SDS011;37929;53.218;6.548;2023-11-19T06:53:55;32.13;;;5.63;;
51901;SDS011;37929;53.218;6.548;2023-11-19T06:56:21;29.33;;;5.20;;
51901;SDS011;37929;53.218;6.548;2023-11-19T06:58:49;35.47;;;5.90;;
51901;SDS011;37929;53.218;6.548;2023-11-19T07:01:16;34.60;;;5.85;;
51901;SDS011;37929;53.218;6.548;2023-11-19T07:03:46;30.98;;;5.93;;
51901;SDS011;37929;53.218;6.548;2023-11-19T07:06:13;29.35;;;5.65;;
51901;SDS011;37929;53.218;6.548;2023-11-19T07:08:40;30.90;;;6.18;;
51901;SDS011;37929;53.218;6.548;2023-11-19T07:11:06;31.17;;;5.30;;
51901;SDS011;37929;53.218;6.548;2023-11-19T07:13:35;29.30;;;5.32;;
51901;SDS011;37929;53.218;6.548;2023-11-19T07:16:01;29.55;;;5.40;;
51901;SDS011;37929;53.218;6.548;2023-11-19T07:18:26;29.38;;;5.90;;
51901;SDS011;37929;53.218;6.548;2023-11-19T07:20:52;28.00;;;6.70;;
51901;SDS011;37929;53.218;6.548;2023-11-19T07:23:18;34.38;;;6.97;;
51901;SDS011;37929;53.218;6.548;2023-11-19T07:25:44;29.58;;;5.47;;
51901;SDS011;37929;53.218;6.548;2023-11-19T07:28:12;33.38;;;5.70;;
51901;SDS011;37929;53.218;6.548;2023-11-19T07:30:38;21.42;;;5.00;;
51901;SDS011;37929;53.218;6.548;2023-11-19T07:33:04;28.52;;;6.07;;
51901;SDS011;37929;53.218;6.548;2023-11-19T07:35:31;28.90;;;5.72;;
51901;SDS011;37929;53.218;6.548;2023-11-19T07:37:57;26.08;;;5.43;;
51901;SDS011;37929;53.218;6.548;2023-11-19T07:40:23;27.55;;;5.07;;
51901;SDS011;37929;53.218;6.548;2023-11-19T07:42:49;32.53;;;5.60;;
51901;SDS011;37929;53.218;6.548;2023-11-19T07:45:15;27.88;;;5.65;;
51901;SDS011;37929;53.218;6.548;2023-11-19T07:47:42;36.33;;;6.78;;
51901;SDS011;37929;53.218;6.548;2023-11-19T07:50:11;26.15;;;4.88;;
51901;SDS011;37929;53.218;6.548;2023-11-19T07:52:39;27.50;;;6.15;;
51901;SDS011;37929;53.218;6.548;2023-11-19T07:55:05;33.33;;;5.47;;
51901;SDS011;37929;53.218;6.548;2023-11-19T07:57:31;31.95;;;6.32;;
51901;SDS011;37929;53.218;6.548;2023-11-19T07:59:57;24.52;;;4.55;;
51901;SDS011;37929;53.218;6.548;2023-11-19T08:02:23;34.10;;;6.43;;
51901;SDS011;37929;53.218;6.548;2023-11-19T08:04:49;30.20;;;5.53;;
51901;SDS011;37929;53.218;6.548;2023-11-19T08:07:17;31.73;;;5.00;;
51901;SDS011;37929;53.218;6.548;2023-11-19T08:09:44;27.25;;;5.65;;
51901;SDS011;37929;53.218;6.548;2023-11-19T08:12:10;27.95;;;5.07;;
51901;SDS011;37929;53.218;6.548;2023-11-19T08:14:36;38.00;;;6.00;;
51901;SDS011;37929;53.218;6.548;2023-11-19T08:17:02;26.95;;;4.90;;
51901;SDS011;37929;53.218;6.548;2023-11-19T08:19:28;30.67;;;6.25;;
51901;SDS011;37929;53.218;6.548;2023-11-19T08:21:55;27.73;;;6.25;;
51901;SDS011;37929;53.218;6.548;2023-11-19T08:24:20;29.85;;;5.63;;
51901;SDS011;37929;53.218;6.548;2023-11-19T08:26:46;29.80;;;5.25;;
51901;SDS011;37929;53.218;6.548;2023-11-19T08:29:12;30.63;;;6.07;;
51901;SDS011;37929;53.218;6.548;2023-11-19T08:31:38;26.45;;;5.03;;
51901;SDS011;37929;53.218;6.548;2023-11-19T08:34:04;35.17;;;5.68;;
51901;SDS011;37929;53.218;6.548;2023-11-19T08:36:33;36.88;;;6.00;;
51901;SDS011;37929;53.218;6.548;2023-11-19T08:39:00;25.85;;;5.10;;
51901;SDS011;37929;53.218;6.548;2023-11-19T08:41:25;37.17;;;6.78;;
51901;SDS011;37929;53.218;6.548;2023-11-19T08:43:52;28.10;;;4.40;;
51901;SDS011;37929;53.218;6.548;2023-11-19T08:46:18;31.63;;;4.70;;
51901;SDS011;37929;53.218;6.548;2023-11-19T08:48:44;27.45;;;5.07;;
51901;SDS011;37929;53.218;6.548;2023-11-19T08:51:11;29.98;;;5.03;;
51901;SDS011;37929;53.218;6.548;2023-11-19T08:53:39;31.42;;;7.57;;
51901;SDS011;37929;53.218;6.548;2023-11-19T08:56:05;23.23;;;4.50;;
51901;SDS011;37929;53.218;6.548;2023-11-19T08:58:31;37.05;;;5.95;;
51901;SDS011;37929;53.218;6.548;2023-11-19T09:00:57;31.08;;;5.30;;
51901;SDS011;37929;53.218;6.548;2023-11-19T09:03:23;32.20;;;5.03;;
51901;SDS011;37929;53.218;6.548;2023-11-19T09:05:51;30.58;;;5.18;;
51901;SDS011;37929;53.218;6.548;2023-11-19T09:08:17;33.88;;;6.07;;
51901;SDS011;37929;53.218;6.548;2023-11-19T09:10:43;35.05;;;6.15;;
51901;SDS011;37929;53.218;6.548;2023-11-19T09:13:09;27.95;;;6.13;;
51901;SDS011;37929;53.218;6.548;2023-11-19T09:15:35;29.38;;;5.47;;
51901;SDS011;37929;53.218;6.548;2023-11-19T09:18:00;34.63;;;6.85;;
51901;SDS011;37929;53.218;6.548;2023-11-19T09:20:26;21.83;;;5.40;;
51901;SDS011;37929;53.218;6.548;2023-11-19T09:22:52;34.95;;;5.68;;
51901;SDS011;37929;53.218;6.548;2023-11-19T09:25:18;26.50;;;5.50;;
51901;SDS011;37929;53.218;6.548;2023-11-19T09:27:44;37.75;;;5.45;;
51901;SDS011;37929;53.218;6.548;2023-11-19T09:30:10;26.67;;;4.88;;
51901;SDS011;37929;53.218;6.548;2023-11-19T09:32:37;29.02;;;6.07;;
51901;SDS011;37929;53.218;6.548;2023-11-19T09:35:04;29.10;;;5.95;;
51901;SDS011;37929;53.218;6.548;2023-11-19T09:37:31;25.00;;;4.78;;
51901;SDS011;37929;53.218;6.548;2023-11-19T09:39:57;23.38;;;4.75;;
51901;SDS011;37929;53.218;6.548;2023-11-19T09:42:23;26.08;;;6.32;;
51901;SDS011;37929;53.218;6.548;2023-11-19T09:44:49;28.42;;;5.13;;
51901;SDS011;37929;53.218;6.548;2023-11-19T09:47:16;31.85;;;4.93;;
51901;SDS011;37929;53.218;6.548;2023-11-19T09:49:44;32.15;;;5.88;;
51901;SDS011;37929;53.218;6.548;2023-11-19T09:52:10;29.67;;;6.68;;
51901;SDS011;37929;53.218;6.548;2023-11-19T09:54:36;33.67;;;5.57;;
51901;SDS011;37929;53.218;6.548;2023-11-19T09:57:02;33.85;;;5.80;;
51901;SDS011;37929;53.218;6.548;2023-11-19T09:59:29;27.75;;;5.82;;
51901;SDS011;37929;53.218;6.548;2023-11-19T10:01:56;29.83;;;5.38;;
51901;SDS011;37929;53.218;6.548;2023-11-19T10:04:22;32.45;;;4.95;;
51901;SDS011;37929;53.218;6.548;2023-11-19T10:06:52;22.65;;;5.10;;
51901;SDS011;37929;53.218;6.548;2023-11-19T10:09:18;29.33;;;5.97;;
51901;SDS011;37929;53.218;6.548;2023-11-19T10:11:44;27.45;;;4.90;;
51901;SDS011;37929;53.218;6.548;2023-11-19T10:14:09;34.47;;;5.45;;
51901;SDS011;37929;53.218;6.548;2023-11-19T10:16:35;28.58;;;5.55;;
51901;SDS011;37929;53.218;6.548;2023-11-19T10:19:03;26.17;;;5.22;;
51901;SDS011;37929;53.218;6.548;2023-11-19T10:21:28;36.55;;;5.70;;
51901;SDS011;37929;53.218;6.548;2023-11-19T10:23:59;24.48;;;5.07;;
51901;SDS011;37929;53.218;6.548;2023-11-19T10:26:25;26.83;;;5.28;;
51901;SDS011;37929;53.218;6.548;2023-11-19T10:28:55;25.08;;;4.70;;
51901;SDS011;37929;53.218;6.548;2023-11-19T10:31:30;35.05;;;5.65;;
51901;SDS011;37929;53.218;6.548;2023-11-19T10:33:56;26.92;;;5.03;;
51901;SDS011;37929;53.218;6.548;2023-11-19T10:36:22;25.35;;;5.32;;
51901;SDS011;37929;53.218;6.548;2023-11-19T10:38:54;27.63;;;5.43;;
51901;SDS011;37929;53.218;6.548;2023-11-19T10:41:30;36.72;;;6.25;;
51901;SDS011;37929;53.218;6.548;2023-11-19T10:43:57;25.73;;;5.35;;
51901;SDS011;37929;53.218;6.548;2023-11-19T10:46:39;32.03;;;6.45;;
51901;SDS011;37929;53.218;6.548;2023-11-19T10:49:06;30.95;;;6.20;;
51901;SDS011;37929;53.218;6.548;2023-11-19T10:51:32;29.08;;;4.32;;
51901;SDS011;37929;53.218;6.548;2023-11-19T10:54:04;29.52;;;5.35;;
51901;SDS011;37929;53.218;6.548;2023-11-19T10:56:41;25.70;;;5.22;;
51901;SDS011;37929;53.218;6.548;2023-11-19T10:59:10;24.98;;;5.63;;
51901;SDS011;37929;53.218;6.548;2023-11-19T11:01:48;23.20;;;4.97;;
51901;SDS011;37929;53.218;6.548;2023-11-19T11:04:24;31.83;;;5.38;;
51901;SDS011;37929;53.218;6.548;2023-11-19T11:06:51;29.13;;;4.75;;
51901;SDS011;37929;53.218;6.548;2023-11-19T11:09:22;26.05;;;4.50;;
51901;SDS011;37929;53.218;6.548;2023-11-19T11:11:48;25.35;;;4.93;;
51901;SDS011;37929;53.218;6.548;2023-11-19T11:14:16;23.33;;;4.38;;
51901;SDS011;37929;53.218;6.548;2023-11-19T11:16:46;27.83;;;5.45;;
51901;SDS011;37929;53.218;6.548;2023-11-19T11:19:13;22.55;;;4.60;;
51901;SDS011;37929;53.218;6.548;2023-11-19T11:21:44;21.95;;;4.93;;
51901;SDS011;37929;53.218;6.548;2023-11-19T11:36:17;33.13;;;5.53;;
51901;SDS011;37929;53.218;6.548;2023-11-19T11:38:47;22.98;;;4.65;;
51901;SDS011;37929;53.218;6.548;2023-11-19T11:41:18;26.23;;;4.20;;
51901;SDS011;37929;53.218;6.548;2023-11-19T11:49:02;24.65;;;5.25;;
51901;SDS011;37929;53.218;6.548;2023-11-19T11:52:14;23.60;;;4.95;;
51901;SDS011;37929;53.218;6.548;2023-11-19T11:54:25;25.35;;;6.10;;
51901;SDS011;37929;53.218;6.548;2023-11-19T11:57:04;24.83;;;4.70;;
51901;SDS011;37929;53.218;6.548;2023-11-19T11:59:52;23.77;;;4.50;;
51901;SDS011;37929;53.218;6.548;2023-11-19T12:02:18;27.95;;;5.13;;
51901;SDS011;37929;53.218;6.548;2023-11-19T12:04:47;29.85;;;4.85;;
51901;SDS011;37929;53.218;6.548;2023-11-19T12:07:16;29.70;;;4.32;;
51901;SDS011;37929;53.218;6.548;2023-11-19T12:09:53;29.23;;;5.30;;
51901;SDS011;37929;53.218;6.548;2023-11-19T12:12:32;33.67;;;6.20;;
51901;SDS011;37929;53.218;6.548;2023-11-19T12:20:05;26.23;;;5.10;;
51901;SDS011;37929;53.218;6.548;2023-11-19T12:22:39;25.90;;;4.38;;
51901;SDS011;37929;53.218;6.548;2023-11-19T12:25:07;23.55;;;4.50;;
51901;SDS011;37929;53.218;6.548;2023-11-19T12:27:34;21.42;;;4.57;;
51901;SDS011;37929;53.218;6.548;2023-11-19T12:30:01;25.58;;;5.55;;
51901;SDS011;37929;53.218;6.548;2023-11-19T12:32:39;28.45;;;5.70;;
51901;SDS011;37929;53.218;6.548;2023-11-19T12:35:09;33.35;;;6.93;;
51901;SDS011;37929;53.218;6.548;2023-11-19T12:37:59;25.20;;;5.15;;
51901;SDS011;37929;53.218;6.548;2023-11-19T12:40:25;21.73;;;4.22;;
51901;SDS011;37929;53.218;6.548;2023-11-19T12:42:52;19.77;;;4.20;;
51901;SDS011;37929;53.218;6.548;2023-11-19T12:45:18;23.42;;;4.10;;
51901;SDS011;37929;53.218;6.548;2023-11-19T12:47:46;29.88;;;5.03;;
51901;SDS011;37929;53.218;6.548;2023-11-19T12:50:13;19.73;;;3.95;;
51901;SDS011;37929;53.218;6.548;2023-11-19T12:52:40;23.63;;;5.60;;
51901;SDS011;37929;53.218;6.548;2023-11-19T12:55:25;28.10;;;5.00;;
51901;SDS011;37929;53.218;6.548;2023-11-19T12:57:52;30.85;;;5.80;;
51901;SDS011;37929;53.218;6.548;2023-11-19T13:00:23;29.67;;;5.30;;
51901;SDS011;37929;53.218;6.548;2023-11-19T13:02:50;27.80;;;4.65;;
51901;SDS011;37929;53.218;6.548;2023-11-19T13:08:03;24.13;;;4.65;;
51901;SDS011;37929;53.218;6.548;2023-11-19T13:10:34;30.25;;;5.18;;
51901;SDS011;37929;53.218;6.548;2023-11-19T13:13:19;19.85;;;4.13;;
51901;SDS011;37929;53.218;6.548;2023-11-19T13:15:47;22.13;;;5.05;;
51901;SDS011;37929;53.218;6.548;2023-11-19T13:18:16;24.85;;;4.53;;
51901;SDS011;37929;53.218;6.548;2023-11-19T13:20:42;18.40;;;3.65;;
51901;SDS011;37929;53.218;6.548;2023-11-19T13:23:08;21.10;;;4.13;;
51901;SDS011;37929;53.218;6.548;2023-11-19T13:25:35;30.95;;;5.22;;
51901;SDS011;37929;53.218;6.548;2023-11-19T13:28:01;26.67;;;4.93;;
51901;SDS011;37929;53.218;6.548;2023-11-19T13:30:27;25.05;;;4.78;;
51901;SDS011;37929;53.218;6.548;2023-11-19T13:32:54;24.98;;;4.13;;
51901;SDS011;37929;53.218;6.548;2023-11-19T13:35:21;21.92;;;5.03;;
51901;SDS011;37929;53.218;6.548;2023-11-19T13:37:48;20.60;;;3.95;;
51901;SDS011;37929;53.218;6.548;2023-11-19T13:40:13;26.45;;;5.00;;
51901;SDS011;37929;53.218;6.548;2023-11-19T13:42:43;23.77;;;4.25;;
51901;SDS011;37929;53.218;6.548;2023-11-19T13:45:13;29.25;;;5.63;;
51901;SDS011;37929;53.218;6.548;2023-11-19T13:47:40;32.78;;;4.55;;
51901;SDS011;37929;53.218;6.548;2023-11-19T13:50:08;19.40;;;3.88;;
51901;SDS011;37929;53.218;6.548;2023-11-19T13:52:35;21.98;;;4.10;;
51901;SDS011;37929;53.218;6.548;2023-11-19T13:55:04;24.70;;;4.30;;
51901;SDS011;37929;53.218;6.548;2023-11-19T13:57:31;22.70;;;4.38;;
51901;SDS011;37929;53.218;6.548;2023-11-19T13:59:57;25.45;;;4.32;;
51901;SDS011;37929;53.218;6.548;2023-11-19T14:02:24;21.42;;;4.70;;
51901;SDS011;37929;53.218;6.548;2023-11-19T14:04:49;22.08;;;4.45;;
51901;SDS011;37929;53.218;6.548;2023-11-19T14:07:15;20.35;;;4.72;;
51901;SDS011;37929;53.218;6.548;2023-11-19T14:09:41;21.17;;;4.43;;
51901;SDS011;37929;53.218;6.548;2023-11-19T14:12:07;18.75;;;4.35;;
51901;SDS011;37929;53.218;6.548;2023-11-19T14:14:34;20.48;;;5.40;;
51901;SDS011;37929;53.218;6.548;2023-11-19T14:17:03;26.05;;;4.90;;
51901;SDS011;37929;53.218;6.548;2023-11-19T14:19:29;21.73;;;4.30;;
51901;SDS011;37929;53.218;6.548;2023-11-19T14:21:55;25.60;;;4.32;;
51901;SDS011;37929;53.218;6.548;2023-11-19T14:24:21;23.58;;;3.78;;
51901;SDS011;37929;53.218;6.548;2023-11-19T14:26:47;24.73;;;5.38;;
51901;SDS011;37929;53.218;6.548;2023-11-19T14:29:14;25.80;;;4.15;;
51901;SDS011;37929;53.218;6.548;2023-11-19T14:31:40;22.88;;;4.40;;
51901;SDS011;37929;53.218;6.548;2023-11-19T14:34:06;25.42;;;4.07;;
51901;SDS011;37929;53.218;6.548;2023-11-19T14:36:32;23.90;;;4.25;;
51901;SDS011;37929;53.218;6.548;2023-11-19T14:38:58;27.35;;;4.90;;
51901;SDS011;37929;53.218;6.548;2023-11-19T14:41:24;22.95;;;4.32;;
51901;SDS011;37929;53.218;6.548;2023-11-19T14:43:50;25.70;;;5.43;;
51901;SDS011;37929;53.218;6.548;2023-11-19T14:46:15;34.17;;;5.32;;
51901;SDS011;37929;53.218;6.548;2023-11-19T14:48:41;25.13;;;4.45;;
51901;SDS011;37929;53.218;6.548;2023-11-19T14:51:08;23.58;;;4.78;;
51901;SDS011;37929;53.218;6.548;2023-11-19T14:53:34;25.38;;;4.95;;
51901;SDS011;37929;53.218;6.548;2023-11-19T14:56:10;22.90;;;3.88;;
51901;SDS011;37929;53.218;6.548;2023-11-19T14:58:37;22.85;;;4.65;;
51901;SDS011;37929;53.218;6.548;2023-11-19T15:01:03;23.73;;;4.13;;
51901;SDS011;37929;53.218;6.548;2023-11-19T15:03:30;25.30;;;4.85;;